Igor I Sikorsky Memorial Airport Bridgeport US
ICAO: KBDR
IATA: BDR
Category: Medium
Scheduled Services: Yes

Elevation: 9 ft
TransAlt. 18000 ft.

Airport Communications:
NEW YORK APP/DEP:124.075
ATIS:119.15
CLNC DEL:121.75
CTAF:120.9
GND:121.9
BRIDGEPORT RDO:108.8
BRIDGEPORT TWR:120.9
UNICOM:123

KBDR Zoom In..

If you have problems with the map follow the link
https://www.worldairports.se/pages/airport.php?
ICAO=KBDR

Runways:

(A) RW 06 length 4677 ft width 150 ft
ILS 110.70 / hdg 58

(B) RW 11 length 4761 ft width 150 ft
---- / hdg 111

(C) RW 24 length 4677 ft width 150 ft
---- / hdg 238

(D) RW 29 length 4761 ft width 150 ft
---- / hdg 291

Location; KBDR
Day. 18 / Time. 23.52 Zulu
* Altimeter: 30.33
* Temperature: 07° c. 44.6°f.
* Wind from: 280° Speed 07 kn.
Dewpoint: -06° c.
Visibility: 10 Statute Miles.
Clouds: Clear (automated report).

KBDR 182352Z 28007KT 10SM CLR 07/M06 A3033 RMK AO2 SLP269 T00721056 10111 20072 51018


Wind From 280°
Speed 07 kn.

 
 
jpsmedia.com for Web Design worldairports.se 2018   terms of use